Terminal Aerodrome Forecast
Issued by NWS Northern Indiana

Home | Current Version | Previous Version | Text Only | Print | Product List | Glossary Off
Versions: 1 2 3 4 5 6 7 8 9 10 11 12 13 14 15 16 17 18 19

000
FTUS43 KIWX 201126
TAFFWA
TAF
KFWA 201126Z 2012/2112 07009KT P6SM SCT008 OVC012
      TEMPO 2012/2015 OVC008
     FM201500 08012KT P6SM VCSH OVC010
     FM201700 09012G18KT 6SM -SHRA BR VCTS OVC020CB
     FM202100 10012KT P6SM VCSH OVC030
     FM210200 12007KT 5SM SHRA VCTS SCT025 OVC040CB
     FM210800 18005KT 6SM -SHRA OVC025=

USA.gov is the U.S. government's official web portal to all federal, state and local government web resources and services.